createdAt,value
2024-03-01T00:01:45.164Z,13.68
2024-03-01T00:04:13.518Z,13.23
2024-03-01T00:06:43.763Z,13.00
2024-03-01T00:09:11.697Z,15.52
2024-03-01T00:11:39.769Z,11.45
2024-03-01T00:14:07.923Z,9.85
2024-03-01T00:16:35.839Z,11.30
2024-03-01T00:19:04.052Z,14.35
2024-03-01T00:21:31.959Z,16.52
2024-03-01T00:24:01.111Z,19.05
2024-03-01T00:26:29.260Z,12.98
2024-03-01T00:28:57.060Z,15.50
2024-03-01T00:31:25.064Z,11.30
2024-03-01T00:33:53.387Z,11.20
2024-03-01T00:36:21.428Z,18.05
2024-03-01T00:38:49.286Z,14.10
2024-03-01T00:41:18.788Z,13.70
2024-03-01T00:43:46.671Z,19.92
2024-03-01T00:46:14.681Z,15.88
2024-03-01T00:48:42.848Z,14.23
2024-03-01T00:51:10.718Z,12.80
2024-03-01T00:53:38.666Z,17.08
2024-03-01T00:56:07.396Z,13.07
2024-03-01T00:58:36.752Z,13.30
2024-03-01T01:01:04.968Z,16.48
2024-03-01T01:03:33.509Z,14.20
2024-03-01T01:06:01.811Z,13.50
2024-03-01T01:08:30.055Z,14.55
2024-03-01T01:11:03.814Z,17.08
2024-03-01T01:13:38.535Z,23.20
2024-03-01T01:16:07.803Z,12.63
2024-03-01T01:18:42.148Z,14.02
2024-03-01T01:21:10.614Z,14.75
2024-03-01T01:23:38.615Z,14.55
2024-03-01T01:26:06.497Z,15.18
2024-03-01T01:28:34.641Z,12.45
2024-03-01T01:31:03.905Z,16.77
2024-03-01T01:33:31.737Z,15.57
2024-03-01T01:35:59.843Z,17.77
2024-03-01T01:38:27.708Z,15.63
2024-03-01T01:40:55.589Z,15.35
2024-03-01T01:43:23.848Z,13.98
2024-03-01T01:45:51.784Z,18.10
2024-03-01T01:48:20.978Z,21.98
2024-03-01T01:50:49.188Z,15.52
2024-03-01T01:53:21.719Z,17.20
2024-03-01T01:55:55.567Z,16.27
2024-03-01T01:58:23.883Z,16.70
2024-03-01T02:00:52.418Z,16.98
2024-03-01T02:03:23.591Z,11.38
2024-03-01T02:05:52.021Z,11.38
2024-03-01T02:08:20.207Z,11.00
2024-03-01T02:10:50.307Z,16.50
2024-03-01T02:13:24.134Z,12.02
2024-03-01T02:15:52.862Z,14.77
2024-03-01T02:18:23.095Z,16.85
2024-03-01T02:20:58.957Z,12.63
2024-03-01T02:23:28.575Z,14.48
2024-03-01T02:25:56.865Z,16.35
2024-03-01T02:28:24.828Z,13.13
2024-03-01T02:30:53.405Z,12.13
2024-03-01T02:33:21.769Z,12.05
2024-03-01T02:35:49.731Z,11.30
2024-03-01T02:38:17.999Z,14.77
2024-03-01T02:40:47.222Z,22.50
2024-03-01T02:43:15.199Z,17.42
2024-03-01T02:45:43.362Z,10.82
2024-03-01T02:48:11.298Z,11.35
2024-03-01T02:50:39.237Z,15.55
2024-03-01T02:53:08.330Z,10.25
2024-03-01T02:55:36.321Z,13.18
2024-03-01T02:58:06.500Z,18.45
2024-03-01T03:00:35.267Z,12.98
2024-03-01T03:03:03.128Z,12.70
2024-03-01T03:05:31.034Z,18.15
2024-03-01T03:07:59.820Z,14.60
2024-03-01T03:10:28.152Z,13.07
2024-03-01T03:12:56.029Z,12.55
2024-03-01T03:15:26.258Z,10.48
2024-03-01T03:17:54.208Z,8.25
2024-03-01T03:20:22.778Z,11.32
2024-03-01T03:22:50.933Z,12.20
2024-03-01T03:25:18.864Z,15.30
2024-03-01T03:27:46.877Z,9.88
2024-03-01T03:30:15.210Z,13.45
2024-03-01T03:32:44.525Z,10.05
2024-03-01T03:35:12.693Z,10.82
2024-03-01T03:37:40.765Z,12.05
2024-03-01T03:40:15.764Z,13.70
2024-03-01T03:42:44.915Z,10.57
2024-03-01T03:45:13.317Z,8.93
2024-03-01T03:47:41.223Z,11.65
2024-03-01T03:50:11.194Z,13.93
2024-03-01T03:52:39.372Z,14.68
2024-03-01T03:55:08.251Z,13.77
2024-03-01T03:57:37.196Z,15.13
2024-03-01T04:00:09.818Z,16.45
2024-03-01T04:02:38.192Z,15.65
2024-03-01T04:05:07.889Z,15.55
2024-03-01T04:07:37.792Z,13.10
2024-03-01T04:10:07.518Z,11.68
2024-03-01T04:12:37.199Z,14.82
2024-03-01T04:15:06.793Z,9.85
2024-03-01T04:17:35.795Z,15.60
2024-03-01T04:20:05.382Z,11.95
2024-03-01T04:22:36.410Z,17.58
2024-03-01T04:25:07.172Z,11.73
2024-03-01T04:27:35.814Z,14.13
2024-03-01T04:30:03.879Z,13.20
2024-03-01T04:32:31.912Z,9.10
2024-03-01T04:35:00.257Z,10.85
2024-03-01T04:37:28.748Z,12.02
2024-03-01T04:39:56.828Z,12.00
2024-03-01T04:42:26.888Z,8.45
2024-03-01T04:44:54.838Z,12.10
2024-03-01T04:47:22.734Z,10.82
2024-03-01T04:49:51.111Z,9.77
2024-03-01T04:52:19.069Z,12.35
2024-03-01T04:54:48.562Z,16.05
2024-03-01T04:57:17.367Z,18.35
2024-03-01T04:59:46.613Z,10.43
2024-03-01T05:02:14.480Z,10.48
2024-03-01T05:04:44.726Z,13.07
2024-03-01T05:07:12.924Z,11.50
2024-03-01T05:09:44.168Z,17.10
2024-03-01T05:12:15.225Z,14.55
2024-03-01T05:14:43.269Z,12.68
2024-03-01T05:17:14.791Z,12.20
2024-03-01T05:19:43.019Z,12.23
2024-03-01T05:22:14.453Z,13.70
2024-03-01T05:24:42.907Z,13.05
2024-03-01T05:27:13.949Z,13.93
2024-03-01T05:29:42.393Z,18.08
2024-03-01T05:32:10.557Z,14.80
2024-03-01T05:34:40.154Z,17.58
2024-03-01T05:37:08.555Z,16.15
2024-03-01T05:39:36.505Z,14.98
2024-03-01T05:42:07.393Z,11.43
2024-03-01T05:44:35.601Z,16.62
2024-03-01T05:47:04.381Z,13.32
2024-03-01T05:49:32.327Z,13.43
2024-03-01T05:52:01.851Z,14.48
2024-03-01T05:54:30.879Z,12.05
2024-03-01T05:56:59.344Z,11.63
2024-03-01T05:59:27.528Z,18.17
2024-03-01T06:01:55.623Z,20.27
2024-03-01T06:04:23.858Z,11.70
2024-03-01T06:06:51.752Z,14.93
2024-03-01T06:09:21.377Z,13.57
2024-03-01T06:11:51.976Z,18.08
2024-03-01T06:14:20.163Z,14.32
2024-03-01T06:16:48.917Z,13.50
2024-03-01T06:19:18.329Z,13.52
2024-03-01T06:21:46.399Z,15.68
2024-03-01T06:24:15.351Z,15.32
2024-03-01T06:26:44.750Z,12.30
2024-03-01T06:29:12.640Z,13.77
2024-03-01T06:31:40.703Z,11.43
2024-03-01T06:34:08.939Z,14.60
2024-03-01T06:36:36.970Z,15.20
2024-03-01T06:39:05.146Z,15.15
2024-03-01T06:41:33.251Z,16.40
2024-03-01T06:44:02.706Z,16.83
2024-03-01T06:46:31.057Z,15.02
2024-03-01T06:49:00.219Z,15.55
2024-03-01T06:51:28.102Z,12.90
2024-03-01T06:53:55.970Z,19.52
2024-03-01T06:56:24.406Z,19.80
2024-03-01T06:58:52.346Z,15.00
2024-03-01T07:01:21.721Z,12.88
2024-03-01T07:03:49.932Z,13.77
2024-03-01T07:06:17.804Z,11.00
2024-03-01T07:08:45.668Z,16.85
2024-03-01T07:11:13.768Z,22.50
2024-03-01T07:13:41.645Z,11.60
2024-03-01T07:16:09.558Z,20.90
2024-03-01T07:18:39.111Z,21.10
2024-03-01T07:21:08.748Z,17.50
2024-03-01T07:23:37.464Z,19.25
2024-03-01T07:26:07.424Z,13.38
2024-03-01T07:28:36.152Z,19.62
2024-03-01T07:31:05.094Z,16.75
2024-03-01T07:33:33.380Z,22.42
2024-03-01T07:36:02.658Z,18.12
2024-03-01T07:38:30.540Z,15.98
2024-03-01T07:40:58.618Z,21.77
2024-03-01T07:43:26.640Z,17.42
2024-03-01T07:45:54.902Z,27.05
2024-03-01T07:48:23.075Z,14.68
2024-03-01T07:50:50.936Z,16.80
2024-03-01T07:53:20.145Z,21.37
2024-03-01T07:55:48.542Z,23.35
2024-03-01T07:58:16.794Z,20.75
2024-03-01T08:00:44.842Z,23.25
2024-03-01T08:03:13.159Z,19.90
2024-03-01T08:05:41.748Z,19.58
2024-03-01T08:08:11.122Z,28.50
2024-03-01T08:10:43.866Z,19.23
2024-03-01T08:13:12.903Z,17.23
2024-03-01T08:15:41.940Z,17.05
2024-03-01T08:18:18.918Z,19.70
2024-03-01T08:21:07.293Z,16.42
2024-03-01T08:23:39.571Z,17.20
2024-03-01T08:26:14.434Z,15.95
2024-03-01T08:28:45.525Z,21.00
2024-03-01T08:31:23.386Z,21.33
2024-03-01T08:33:59.663Z,20.25
2024-03-01T08:36:28.554Z,20.73
2024-03-01T08:39:12.554Z,20.73
2024-03-01T08:41:44.047Z,15.80
2024-03-01T08:44:51.138Z,18.95
2024-03-01T08:47:26.757Z,16.67
2024-03-01T08:50:25.055Z,18.62
2024-03-01T08:52:53.880Z,19.87
2024-03-01T08:55:42.122Z,25.67
2024-03-01T08:58:18.565Z,21.10
2024-03-01T09:00:49.945Z,23.70
2024-03-01T09:03:25.068Z,23.62
2024-03-01T09:05:56.392Z,24.33
2024-03-01T09:08:26.523Z,25.45
2024-03-01T09:10:56.771Z,27.27
2024-03-01T09:13:27.980Z,26.42
2024-03-01T09:15:58.209Z,28.83
2024-03-01T09:18:43.726Z,25.58
2024-03-01T09:21:45.241Z,21.27
2024-03-01T09:24:17.250Z,24.40
2024-03-01T09:26:46.188Z,31.35
2024-03-01T09:29:37.049Z,21.23
2024-03-01T09:32:06.538Z,20.25
2024-03-01T09:34:37.001Z,21.55
2024-03-01T09:37:07.739Z,20.98
2024-03-01T09:39:36.265Z,19.35
2024-03-01T09:42:38.080Z,19.95
2024-03-01T09:45:40.482Z,21.05
2024-03-01T09:48:28.926Z,20.52
2024-03-01T09:51:13.693Z,17.92
2024-03-01T09:54:02.741Z,20.60
2024-03-01T09:56:39.130Z,22.13
2024-03-01T09:59:15.210Z,20.83
2024-03-01T10:01:49.994Z,18.12
2024-03-01T10:04:32.186Z,18.58
2024-03-01T10:07:06.319Z,19.48
2024-03-01T10:09:51.647Z,17.50
2024-03-01T10:12:35.581Z,20.62
2024-03-01T10:15:05.360Z,18.62
2024-03-01T10:17:49.380Z,23.83
2024-03-01T10:20:26.419Z,22.23
2024-03-01T10:23:11.960Z,21.27
2024-03-01T10:25:48.907Z,20.60
2024-03-01T10:28:32.260Z,20.50
2024-03-01T10:31:12.508Z,21.55
2024-03-01T10:33:54.252Z,22.50
2024-03-01T10:36:30.988Z,18.62
2024-03-01T10:39:05.144Z,20.83
2024-03-01T10:41:49.564Z,19.10
2024-03-01T10:44:22.707Z,18.58
2024-03-01T10:46:56.789Z,19.67
2024-03-01T10:49:30.991Z,19.95
2024-03-01T10:52:04.016Z,23.83
2024-03-01T10:54:35.818Z,21.33
2024-03-01T10:57:09.329Z,18.33
2024-03-01T10:59:48.906Z,17.87
2024-03-01T11:02:22.096Z,20.95
2024-03-01T11:05:03.963Z,17.83
2024-03-01T11:07:44.984Z,19.08
2024-03-01T11:10:21.975Z,20.25
2024-03-01T11:12:53.684Z,19.08
2024-03-01T11:15:22.653Z,19.65
2024-03-01T11:17:52.229Z,17.75
2024-03-01T11:20:23.990Z,17.37
2024-03-01T11:23:00.511Z,22.17
2024-03-01T11:25:36.987Z,24.12
2024-03-01T11:28:06.773Z,22.13
2024-03-01T11:30:46.586Z,19.60
2024-03-01T11:33:17.364Z,17.67
2024-03-01T11:35:48.924Z,17.50
2024-03-01T11:38:28.115Z,20.02
2024-03-01T11:41:11.262Z,22.10
2024-03-01T11:43:52.174Z,20.08
2024-03-01T11:46:36.886Z,17.62
2024-03-01T11:49:17.935Z,23.35
2024-03-01T11:51:59.994Z,23.00
2024-03-01T11:54:48.999Z,19.90
2024-03-01T11:57:31.515Z,21.73
2024-03-01T12:00:13.168Z,22.30
2024-03-01T12:03:06.425Z,21.05
2024-03-01T12:05:51.075Z,20.48
2024-03-01T12:08:35.687Z,18.15
2024-03-01T12:11:17.397Z,19.37
2024-03-01T12:13:54.464Z,20.05
2024-03-01T12:16:35.160Z,16.12
2024-03-01T12:19:15.149Z,17.60
2024-03-01T12:22:01.379Z,20.48
2024-03-01T12:24:38.243Z,19.05
2024-03-01T12:27:13.472Z,18.12
2024-03-01T12:29:51.857Z,18.83
2024-03-01T12:32:26.680Z,16.80
2024-03-01T12:35:10.828Z,19.62
2024-03-01T12:37:51.218Z,16.67
2024-03-01T12:40:21.573Z,21.35
2024-03-01T12:43:21.651Z,18.02
2024-03-01T12:46:23.641Z,17.73
2024-03-01T12:49:00.327Z,18.42
2024-03-01T12:51:32.234Z,17.48
2024-03-01T12:54:03.967Z,17.40
2024-03-01T12:56:49.784Z,19.60
2024-03-01T12:59:34.793Z,17.02
2024-03-01T13:02:32.612Z,20.98
2024-03-01T13:05:14.531Z,17.00
2024-03-01T13:07:43.367Z,20.90
2024-03-01T13:10:15.296Z,18.05
2024-03-01T13:12:46.932Z,18.95
2024-03-01T13:15:19.635Z,19.33
2024-03-01T13:18:01.937Z,22.42
2024-03-01T13:20:32.036Z,19.73
2024-03-01T13:23:20.943Z,21.27
2024-03-01T13:26:07.509Z,17.27
2024-03-01T13:28:41.898Z,23.90
2024-03-01T13:31:16.458Z,21.52
2024-03-01T13:33:48.278Z,18.05
2024-03-01T13:36:24.825Z,21.87
2024-03-01T13:39:11.656Z,19.75
2024-03-01T13:41:41.810Z,20.20
2024-03-01T13:44:24.249Z,20.60
2024-03-01T13:46:58.899Z,20.33
2024-03-01T13:49:38.210Z,20.52
2024-03-01T13:52:08.797Z,20.85
2024-03-01T13:54:37.453Z,22.42
2024-03-01T13:57:07.635Z,20.73
2024-03-01T13:59:37.057Z,22.37
2024-03-01T14:02:06.001Z,19.00
2024-03-01T14:04:34.521Z,22.70
2024-03-01T14:07:02.586Z,22.62
2024-03-01T14:09:30.667Z,21.17
2024-03-01T14:11:58.878Z,18.02
2024-03-01T14:14:27.239Z,20.90
2024-03-01T14:16:59.305Z,20.25
2024-03-01T14:19:27.574Z,23.90
2024-03-01T14:21:57.994Z,19.17
2024-03-01T14:24:26.698Z,23.58
2024-03-01T14:26:54.843Z,21.37
2024-03-01T14:29:22.934Z,23.67
2024-03-01T14:32:11.132Z,20.52
2024-03-01T14:34:40.321Z,17.70
2024-03-01T14:37:11.167Z,19.70
2024-03-01T14:39:40.523Z,21.27
2024-03-01T14:42:18.208Z,24.87
2024-03-01T14:44:46.590Z,22.52
2024-03-01T14:47:16.012Z,19.30
2024-03-01T14:49:44.387Z,19.90
2024-03-01T14:52:13.510Z,19.25
2024-03-01T14:54:41.710Z,20.42
2024-03-01T14:57:09.758Z,22.35
2024-03-01T14:59:38.553Z,18.35
2024-03-01T15:02:06.593Z,20.58
2024-03-01T15:04:36.053Z,20.65
2024-03-01T15:07:05.570Z,15.48
2024-03-01T15:09:45.095Z,19.62
2024-03-01T15:12:13.784Z,20.92
2024-03-01T15:14:41.775Z,22.35
2024-03-01T15:17:10.059Z,22.98
2024-03-01T15:19:44.130Z,19.85
2024-03-01T15:22:13.745Z,19.10
2024-03-01T15:24:42.113Z,20.85
2024-03-01T15:27:10.038Z,21.48
2024-03-01T15:29:38.000Z,22.87
2024-03-01T15:32:07.557Z,20.60
2024-03-01T15:34:35.500Z,20.08
2024-03-01T15:37:05.076Z,22.25
2024-03-01T15:39:33.216Z,26.90
2024-03-01T15:42:01.210Z,34.45
2024-03-01T15:44:29.101Z,23.33
2024-03-01T15:46:57.269Z,21.30
2024-03-01T15:49:25.245Z,24.83
2024-03-01T15:51:54.488Z,21.80
2024-03-01T15:54:24.050Z,24.05
2024-03-01T15:56:51.904Z,27.52
2024-03-01T15:59:19.809Z,26.10
2024-03-01T16:01:48.018Z,34.10
2024-03-01T16:04:16.623Z,21.17
2024-03-01T16:06:44.672Z,23.67
2024-03-01T16:09:13.054Z,20.88
2024-03-01T16:11:44.019Z,20.60
2024-03-01T16:14:13.189Z,22.90
2024-03-01T16:16:42.185Z,18.17
2024-03-01T16:19:11.029Z,19.33
2024-03-01T16:21:40.278Z,23.08
2024-03-01T16:24:10.402Z,27.30
2024-03-01T16:26:38.837Z,22.50
2024-03-01T16:29:09.107Z,19.98
2024-03-01T16:31:37.360Z,17.02
2024-03-01T16:34:05.849Z,25.62
2024-03-01T16:36:33.839Z,21.90
2024-03-01T16:39:02.379Z,22.02
2024-03-01T16:41:40.166Z,18.90
2024-03-01T16:44:24.676Z,19.50
2024-03-01T16:46:52.742Z,22.15
2024-03-01T16:49:37.268Z,22.15
2024-03-01T16:52:07.736Z,20.92
2024-03-01T16:54:36.331Z,21.45
2024-03-01T16:57:08.711Z,19.70
2024-03-01T16:59:39.567Z,20.90
2024-03-01T17:02:21.117Z,22.05
2024-03-01T17:05:13.359Z,20.40
2024-03-01T17:08:01.589Z,19.48
2024-03-01T17:22:30.779Z,22.35
2024-03-01T17:24:58.929Z,25.70
2024-03-01T17:27:26.898Z,25.88
2024-03-01T17:29:54.957Z,17.10
2024-03-01T17:32:23.549Z,19.77
2024-03-01T17:34:51.517Z,21.20
2024-03-01T17:37:20.824Z,20.42
2024-03-01T17:39:50.396Z,22.70
2024-03-01T17:42:19.057Z,20.05
2024-03-01T17:44:47.428Z,23.60
2024-03-01T17:47:15.669Z,17.92
2024-03-01T17:49:43.916Z,17.02
2024-03-01T17:52:12.315Z,15.48
2024-03-01T17:54:40.730Z,22.92
2024-03-01T17:57:12.363Z,20.27
2024-03-01T17:59:40.868Z,23.52
2024-03-01T18:02:08.969Z,22.35
2024-03-01T18:04:39.612Z,20.02
2024-03-01T18:07:07.770Z,24.05
2024-03-01T18:09:35.944Z,22.35
2024-03-01T18:12:04.609Z,24.73
2024-03-01T18:14:34.440Z,20.77
2024-03-01T18:17:02.857Z,21.15
2024-03-01T18:19:31.342Z,23.02
2024-03-01T18:22:01.227Z,22.37
2024-03-01T18:24:31.985Z,19.62
2024-03-01T18:27:00.306Z,23.25
2024-03-01T18:29:30.584Z,22.70
2024-03-01T18:32:01.313Z,20.80
2024-03-01T18:34:29.569Z,25.35
2024-03-01T18:36:57.614Z,23.17
2024-03-01T18:39:25.698Z,20.45
2024-03-01T18:41:53.933Z,22.37
2024-03-01T18:44:21.986Z,21.23
2024-03-01T18:46:50.059Z,19.55
2024-03-01T18:49:20.123Z,18.98
2024-03-01T18:51:48.166Z,20.55
2024-03-01T18:54:16.238Z,20.92
2024-03-01T18:56:44.694Z,23.73
2024-03-01T18:59:14.973Z,19.50
2024-03-01T19:01:43.275Z,21.25
2024-03-01T19:04:11.826Z,17.87
2024-03-01T19:06:41.218Z,21.40
2024-03-01T19:09:09.211Z,20.65
2024-03-01T19:11:37.717Z,20.92
2024-03-01T19:14:06.970Z,16.67
2024-03-01T19:16:35.094Z,23.40
2024-03-01T19:19:04.465Z,25.40
2024-03-01T19:21:32.779Z,26.30
2024-03-01T19:24:02.212Z,23.55
2024-03-01T19:26:30.411Z,19.05
2024-03-01T19:29:00.008Z,21.67
2024-03-01T19:31:28.117Z,24.23
2024-03-01T19:33:56.853Z,25.73
2024-03-01T19:36:24.899Z,21.98
2024-03-01T19:38:53.028Z,23.90
2024-03-01T19:41:22.660Z,23.62
2024-03-01T19:43:50.716Z,29.02
2024-03-01T19:46:18.869Z,23.62
2024-03-01T19:48:48.474Z,24.05
2024-03-01T19:51:17.280Z,22.87
2024-03-01T19:53:45.267Z,25.98
2024-03-01T19:56:13.708Z,24.70
2024-03-01T19:58:43.014Z,20.77
2024-03-01T20:01:11.100Z,19.90
2024-03-01T20:03:39.441Z,26.02
2024-03-01T20:06:07.477Z,25.58
2024-03-01T20:08:35.635Z,22.90
2024-03-01T20:11:05.697Z,27.20
2024-03-01T20:13:33.771Z,25.00
2024-03-01T20:16:03.215Z,24.37
2024-03-01T20:18:31.544Z,21.92
2024-03-01T20:21:00.363Z,21.98
2024-03-01T20:23:30.563Z,23.15
2024-03-01T20:26:00.348Z,21.90
2024-03-01T20:28:28.350Z,27.45
2024-03-01T20:30:56.437Z,28.15
2024-03-01T20:33:26.210Z,27.80
2024-03-01T20:35:54.680Z,25.85
2024-03-01T20:38:23.082Z,20.77
2024-03-01T20:40:52.941Z,29.08
2024-03-01T20:43:21.448Z,23.20
2024-03-01T20:45:49.824Z,24.63
2024-03-01T20:48:18.044Z,23.87
2024-03-01T20:50:48.029Z,23.85
2024-03-01T20:53:15.966Z,21.02
2024-03-01T20:55:44.230Z,21.60
2024-03-01T20:58:14.025Z,30.90
2024-03-01T21:00:42.166Z,24.05
2024-03-01T21:03:10.459Z,21.42
2024-03-01T21:05:38.449Z,22.33
2024-03-01T21:08:08.705Z,26.02
2024-03-01T21:10:37.643Z,21.35
2024-03-01T21:13:08.348Z,23.62
2024-03-01T21:15:36.692Z,18.08
2024-03-01T21:18:06.090Z,18.67
2024-03-01T21:20:34.501Z,18.85
2024-03-01T21:23:02.813Z,14.23
2024-03-01T21:25:32.221Z,20.05
2024-03-01T21:28:00.264Z,19.77
2024-03-01T21:30:29.546Z,19.45
2024-03-01T21:33:00.482Z,20.10
2024-03-01T21:35:28.889Z,24.17
2024-03-01T21:37:57.105Z,19.12
2024-03-01T21:40:25.834Z,21.27
2024-03-01T21:42:55.478Z,19.30
2024-03-01T21:45:23.747Z,20.98
2024-03-01T21:47:51.834Z,20.40
2024-03-01T21:50:20.309Z,22.45
2024-03-01T21:52:49.647Z,20.40
2024-03-01T21:55:19.266Z,23.62
2024-03-01T21:57:47.829Z,22.40
2024-03-01T22:00:17.850Z,25.88
2024-03-01T22:02:46.213Z,22.00
2024-03-01T22:05:14.330Z,22.87
2024-03-01T22:07:45.059Z,20.85
2024-03-01T22:10:15.558Z,27.75
2024-03-01T22:12:43.763Z,21.00
2024-03-01T22:15:12.024Z,19.77
2024-03-01T22:17:41.670Z,28.08
2024-03-01T22:20:10.792Z,21.27
2024-03-01T22:22:38.864Z,24.00
2024-03-01T22:25:08.025Z,25.00
2024-03-01T22:27:36.664Z,25.90
2024-03-01T22:30:07.366Z,20.08
2024-03-01T22:32:35.927Z,21.42
2024-03-01T22:35:05.932Z,17.12
2024-03-01T22:37:37.804Z,32.10
2024-03-01T22:40:07.515Z,25.35
2024-03-01T22:42:36.866Z,24.50
2024-03-01T22:45:06.187Z,25.30
2024-03-01T22:47:34.540Z,28.73
2024-03-01T22:50:02.817Z,24.15
2024-03-01T22:52:33.883Z,25.17
2024-03-01T22:55:02.517Z,24.05
2024-03-01T22:57:37.578Z,24.10
2024-03-01T23:00:20.446Z,25.20
2024-03-01T23:02:52.101Z,24.58
2024-03-01T23:05:48.609Z,29.20
2024-03-01T23:08:40.981Z,26.37
2024-03-01T23:11:34.649Z,23.20
2024-03-01T23:14:04.245Z,30.25
2024-03-01T23:16:32.567Z,21.65
2024-03-01T23:19:00.927Z,24.08
2024-03-01T23:21:29.294Z,21.87
2024-03-01T23:23:59.523Z,27.20
2024-03-01T23:26:27.621Z,21.80
2024-03-01T23:28:55.936Z,22.95
2024-03-01T23:31:24.251Z,29.23
2024-03-01T23:33:52.658Z,24.55
2024-03-01T23:36:20.720Z,20.12
2024-03-01T23:38:51.832Z,26.92
2024-03-01T23:41:21.314Z,23.25
2024-03-01T23:43:49.557Z,24.17
2024-03-01T23:46:17.657Z,21.67
2024-03-01T23:48:45.747Z,21.42
2024-03-01T23:51:14.176Z,22.98
2024-03-01T23:53:43.061Z,22.27
2024-03-01T23:56:11.173Z,19.23
2024-03-01T23:58:41.835Z,22.20
